sensor_id;sensor_type;location;lat;lon;timestamp;P1;durP1;ratioP1;P2;durP2;ratioP2
3527;SDS011;1778;47.966;7.854;2023-04-28T00:00:47;1.93;;;1.93;;
3527;SDS011;1778;47.966;7.854;2023-04-28T00:01:49;1.70;;;1.70;;
3527;SDS011;1778;47.966;7.854;2023-04-28T00:02:50;1.70;;;1.70;;
3527;SDS011;1778;47.966;7.854;2023-04-28T00:03:52;1.67;;;1.67;;
3527;SDS011;1778;47.966;7.854;2023-04-28T00:04:55;1.90;;;1.90;;
3527;SDS011;1778;47.966;7.854;2023-04-28T00:05:58;1.63;;;1.63;;
3527;SDS011;1778;47.966;7.854;2023-04-28T00:07:00;1.83;;;1.70;;
3527;SDS011;1778;47.966;7.854;2023-04-28T00:08:02;2.10;;;2.00;;
3527;SDS011;1778;47.966;7.854;2023-04-28T00:09:03;1.90;;;1.80;;
3527;SDS011;1778;47.966;7.854;2023-04-28T00:10:05;2.00;;;2.00;;
3527;SDS011;1778;47.966;7.854;2023-04-28T00:11:10;1.67;;;1.67;;
3527;SDS011;1778;47.966;7.854;2023-04-28T00:12:11;1.60;;;1.50;;
3527;SDS011;1778;47.966;7.854;2023-04-28T00:13:13;1.97;;;1.87;;
3527;SDS011;1778;47.966;7.854;2023-04-28T00:14:14;1.70;;;1.70;;
3527;SDS011;1778;47.966;7.854;2023-04-28T00:15:18;1.73;;;1.73;;
3527;SDS011;1778;47.966;7.854;2023-04-28T00:16:20;1.93;;;1.83;;
3527;SDS011;1778;47.966;7.854;2023-04-28T00:17:22;1.87;;;1.87;;
3527;SDS011;1778;47.966;7.854;2023-04-28T00:18:23;1.60;;;1.60;;
3527;SDS011;1778;47.966;7.854;2023-04-28T00:19:25;1.80;;;1.80;;
3527;SDS011;1778;47.966;7.854;2023-04-28T00:20:26;1.83;;;1.73;;
3527;SDS011;1778;47.966;7.854;2023-04-28T00:21:28;2.00;;;1.73;;
3527;SDS011;1778;47.966;7.854;2023-04-28T00:22:29;1.53;;;1.53;;
3527;SDS011;1778;47.966;7.854;2023-04-28T00:23:32;1.87;;;1.73;;
3527;SDS011;1778;47.966;7.854;2023-04-28T00:24:34;1.67;;;1.67;;
3527;SDS011;1778;47.966;7.854;2023-04-28T00:25:36;1.63;;;1.63;;
3527;SDS011;1778;47.966;7.854;2023-04-28T00:26:38;1.70;;;1.70;;
3527;SDS011;1778;47.966;7.854;2023-04-28T00:27:39;1.53;;;1.53;;
3527;SDS011;1778;47.966;7.854;2023-04-28T00:28:41;1.90;;;1.80;;
3527;SDS011;1778;47.966;7.854;2023-04-28T00:29:43;1.63;;;1.63;;
3527;SDS011;1778;47.966;7.854;2023-04-28T00:30:45;1.60;;;1.60;;
3527;SDS011;1778;47.966;7.854;2023-04-28T00:31:47;1.87;;;1.87;;
3527;SDS011;1778;47.966;7.854;2023-04-28T00:32:48;1.70;;;1.70;;
3527;SDS011;1778;47.966;7.854;2023-04-28T00:33:50;4.23;;;2.00;;
3527;SDS011;1778;47.966;7.854;2023-04-28T00:34:52;1.70;;;1.60;;
3527;SDS011;1778;47.966;7.854;2023-04-28T00:35:59;1.57;;;1.57;;
3527;SDS011;1778;47.966;7.854;2023-04-28T00:37:02;1.83;;;1.80;;
3527;SDS011;1778;47.966;7.854;2023-04-28T00:38:04;1.90;;;1.90;;
3527;SDS011;1778;47.966;7.854;2023-04-28T00:39:06;1.83;;;1.83;;
3527;SDS011;1778;47.966;7.854;2023-04-28T00:40:07;2.10;;;2.10;;
3527;SDS011;1778;47.966;7.854;2023-04-28T00:41:09;2.13;;;2.03;;
3527;SDS011;1778;47.966;7.854;2023-04-28T00:42:14;1.90;;;1.90;;
3527;SDS011;1778;47.966;7.854;2023-04-28T00:43:16;2.10;;;2.10;;
3527;SDS011;1778;47.966;7.854;2023-04-28T00:44:18;2.10;;;2.10;;
3527;SDS011;1778;47.966;7.854;2023-04-28T00:45:19;1.80;;;1.80;;
3527;SDS011;1778;47.966;7.854;2023-04-28T00:46:23;1.90;;;1.90;;
3527;SDS011;1778;47.966;7.854;2023-04-28T00:47:28;1.60;;;1.60;;
3527;SDS011;1778;47.966;7.854;2023-04-28T00:48:30;1.80;;;1.80;;
3527;SDS011;1778;47.966;7.854;2023-04-28T00:49:32;1.70;;;1.70;;
3527;SDS011;1778;47.966;7.854;2023-04-28T00:50:35;1.87;;;1.83;;
3527;SDS011;1778;47.966;7.854;2023-04-28T00:51:37;1.93;;;1.93;;
3527;SDS011;1778;47.966;7.854;2023-04-28T00:52:39;1.90;;;1.90;;
3527;SDS011;1778;47.966;7.854;2023-04-28T00:53:42;1.63;;;1.53;;
3527;SDS011;1778;47.966;7.854;2023-04-28T00:54:44;3.63;;;2.23;;
3527;SDS011;1778;47.966;7.854;2023-04-28T00:55:47;1.67;;;1.67;;
3527;SDS011;1778;47.966;7.854;2023-04-28T00:56:50;1.50;;;1.50;;
3527;SDS011;1778;47.966;7.854;2023-04-28T00:57:51;1.70;;;1.70;;
3527;SDS011;1778;47.966;7.854;2023-04-28T00:58:56;11.30;;;2.10;;
3527;SDS011;1778;47.966;7.854;2023-04-28T00:59:58;1.67;;;1.67;;
3527;SDS011;1778;47.966;7.854;2023-04-28T01:01:01;2.07;;;2.00;;
3527;SDS011;1778;47.966;7.854;2023-04-28T01:02:06;1.70;;;1.70;;
3527;SDS011;1778;47.966;7.854;2023-04-28T01:03:17;2.50;;;2.40;;
3527;SDS011;1778;47.966;7.854;2023-04-28T01:04:19;1.63;;;1.60;;
3527;SDS011;1778;47.966;7.854;2023-04-28T01:05:22;1.70;;;1.60;;
3527;SDS011;1778;47.966;7.854;2023-04-28T01:06:25;2.10;;;2.00;;
3527;SDS011;1778;47.966;7.854;2023-04-28T01:07:31;1.67;;;1.67;;
3527;SDS011;1778;47.966;7.854;2023-04-28T01:08:33;2.20;;;2.10;;
3527;SDS011;1778;47.966;7.854;2023-04-28T01:09:39;1.80;;;1.80;;
3527;SDS011;1778;47.966;7.854;2023-04-28T01:10:42;2.50;;;2.40;;
3527;SDS011;1778;47.966;7.854;2023-04-28T01:11:53;1.73;;;1.73;;
3527;SDS011;1778;47.966;7.854;2023-04-28T01:13:14;2.07;;;1.97;;
3527;SDS011;1778;47.966;7.854;2023-04-28T01:14:16;1.90;;;1.80;;
3527;SDS011;1778;47.966;7.854;2023-04-28T01:15:19;2.40;;;2.30;;
3527;SDS011;1778;47.966;7.854;2023-04-28T01:16:24;2.03;;;2.00;;
3527;SDS011;1778;47.966;7.854;2023-04-28T01:17:27;1.80;;;1.80;;
3527;SDS011;1778;47.966;7.854;2023-04-28T01:18:29;2.03;;;2.03;;
3527;SDS011;1778;47.966;7.854;2023-04-28T01:19:32;4.00;;;2.47;;
3527;SDS011;1778;47.966;7.854;2023-04-28T01:20:34;3.03;;;2.17;;
3527;SDS011;1778;47.966;7.854;2023-04-28T01:21:36;2.37;;;2.13;;
3527;SDS011;1778;47.966;7.854;2023-04-28T01:22:48;1.97;;;1.87;;
3527;SDS011;1778;47.966;7.854;2023-04-28T01:23:51;2.53;;;2.40;;
3527;SDS011;1778;47.966;7.854;2023-04-28T01:24:52;2.40;;;2.40;;
3527;SDS011;1778;47.966;7.854;2023-04-28T01:25:53;1.87;;;1.87;;
3527;SDS011;1778;47.966;7.854;2023-04-28T01:26:56;2.40;;;2.20;;
3527;SDS011;1778;47.966;7.854;2023-04-28T01:27:58;3.47;;;2.37;;
3527;SDS011;1778;47.966;7.854;2023-04-28T01:29:00;2.20;;;2.20;;
3527;SDS011;1778;47.966;7.854;2023-04-28T01:30:02;2.33;;;2.20;;
3527;SDS011;1778;47.966;7.854;2023-04-28T01:31:04;2.40;;;2.40;;
3527;SDS011;1778;47.966;7.854;2023-04-28T01:32:06;2.30;;;2.20;;
3527;SDS011;1778;47.966;7.854;2023-04-28T01:33:08;3.00;;;2.90;;
3527;SDS011;1778;47.966;7.854;2023-04-28T01:34:10;2.90;;;2.60;;
3527;SDS011;1778;47.966;7.854;2023-04-28T01:35:11;2.30;;;2.30;;
3527;SDS011;1778;47.966;7.854;2023-04-28T01:36:13;2.60;;;2.50;;
3527;SDS011;1778;47.966;7.854;2023-04-28T01:37:16;2.80;;;2.70;;
3527;SDS011;1778;47.966;7.854;2023-04-28T01:38:18;2.60;;;2.50;;
3527;SDS011;1778;47.966;7.854;2023-04-28T01:39:19;2.40;;;2.40;;
3527;SDS011;1778;47.966;7.854;2023-04-28T01:40:21;2.43;;;2.43;;
3527;SDS011;1778;47.966;7.854;2023-04-28T01:41:23;2.80;;;2.70;;
3527;SDS011;1778;47.966;7.854;2023-04-28T01:42:24;2.77;;;2.67;;
3527;SDS011;1778;47.966;7.854;2023-04-28T01:43:26;3.07;;;3.00;;
3527;SDS011;1778;47.966;7.854;2023-04-28T01:44:28;2.90;;;2.80;;
3527;SDS011;1778;47.966;7.854;2023-04-28T01:45:29;3.07;;;2.97;;
3527;SDS011;1778;47.966;7.854;2023-04-28T01:46:32;3.37;;;3.27;;
3527;SDS011;1778;47.966;7.854;2023-04-28T01:47:34;2.80;;;2.80;;
3527;SDS011;1778;47.966;7.854;2023-04-28T01:48:36;2.80;;;2.80;;
3527;SDS011;1778;47.966;7.854;2023-04-28T01:49:39;2.70;;;2.60;;
3527;SDS011;1778;47.966;7.854;2023-04-28T01:50:41;3.07;;;2.97;;
3527;SDS011;1778;47.966;7.854;2023-04-28T01:51:42;3.70;;;3.50;;
3527;SDS011;1778;47.966;7.854;2023-04-28T01:52:44;3.20;;;3.10;;
3527;SDS011;1778;47.966;7.854;2023-04-28T01:53:46;4.07;;;3.87;;
3527;SDS011;1778;47.966;7.854;2023-04-28T01:54:48;3.40;;;3.30;;
3527;SDS011;1778;47.966;7.854;2023-04-28T01:55:49;3.87;;;3.67;;
3527;SDS011;1778;47.966;7.854;2023-04-28T01:56:52;3.30;;;3.20;;
3527;SDS011;1778;47.966;7.854;2023-04-28T01:57:54;4.60;;;4.30;;
3527;SDS011;1778;47.966;7.854;2023-04-28T01:58:59;3.20;;;3.10;;
3527;SDS011;1778;47.966;7.854;2023-04-28T02:00:02;4.70;;;4.30;;
3527;SDS011;1778;47.966;7.854;2023-04-28T02:01:07;3.83;;;3.70;;
3527;SDS011;1778;47.966;7.854;2023-04-28T02:02:09;5.60;;;3.60;;
3527;SDS011;1778;47.966;7.854;2023-04-28T02:03:10;3.50;;;3.40;;
3527;SDS011;1778;47.966;7.854;2023-04-28T02:04:12;3.57;;;3.47;;
3527;SDS011;1778;47.966;7.854;2023-04-28T02:05:14;4.93;;;4.63;;
3527;SDS011;1778;47.966;7.854;2023-04-28T02:06:16;3.70;;;3.60;;
3527;SDS011;1778;47.966;7.854;2023-04-28T02:07:17;4.20;;;3.90;;
3527;SDS011;1778;47.966;7.854;2023-04-28T02:08:19;3.87;;;3.77;;
3527;SDS011;1778;47.966;7.854;2023-04-28T02:09:21;3.80;;;3.60;;
3527;SDS011;1778;47.966;7.854;2023-04-28T02:10:23;4.20;;;4.10;;
3527;SDS011;1778;47.966;7.854;2023-04-28T02:11:25;3.90;;;3.80;;
3527;SDS011;1778;47.966;7.854;2023-04-28T02:12:29;4.50;;;4.30;;
3527;SDS011;1778;47.966;7.854;2023-04-28T02:13:31;5.17;;;4.93;;
3527;SDS011;1778;47.966;7.854;2023-04-28T02:14:36;5.53;;;4.80;;
3527;SDS011;1778;47.966;7.854;2023-04-28T02:15:38;4.93;;;4.83;;
3527;SDS011;1778;47.966;7.854;2023-04-28T02:16:43;4.80;;;4.60;;
3527;SDS011;1778;47.966;7.854;2023-04-28T02:17:44;4.60;;;4.47;;
3527;SDS011;1778;47.966;7.854;2023-04-28T02:18:47;4.80;;;4.37;;
3527;SDS011;1778;47.966;7.854;2023-04-28T02:19:53;4.50;;;4.40;;
3527;SDS011;1778;47.966;7.854;2023-04-28T02:20:56;4.53;;;4.43;;
3527;SDS011;1778;47.966;7.854;2023-04-28T02:21:57;4.37;;;4.27;;
3527;SDS011;1778;47.966;7.854;2023-04-28T02:23:00;4.70;;;4.60;;
3527;SDS011;1778;47.966;7.854;2023-04-28T02:24:02;4.73;;;4.57;;
3527;SDS011;1778;47.966;7.854;2023-04-28T02:25:04;4.83;;;4.40;;
3527;SDS011;1778;47.966;7.854;2023-04-28T02:26:10;4.80;;;4.70;;
3527;SDS011;1778;47.966;7.854;2023-04-28T02:27:12;4.93;;;4.73;;
3527;SDS011;1778;47.966;7.854;2023-04-28T02:28:13;4.57;;;4.47;;
3527;SDS011;1778;47.966;7.854;2023-04-28T02:29:15;5.60;;;5.17;;
3527;SDS011;1778;47.966;7.854;2023-04-28T02:30:16;5.40;;;5.20;;
3527;SDS011;1778;47.966;7.854;2023-04-28T02:31:18;5.10;;;4.90;;
3527;SDS011;1778;47.966;7.854;2023-04-28T02:32:27;5.60;;;5.30;;
3527;SDS011;1778;47.966;7.854;2023-04-28T02:33:28;5.43;;;5.20;;
3527;SDS011;1778;47.966;7.854;2023-04-28T02:34:30;4.93;;;4.73;;
3527;SDS011;1778;47.966;7.854;2023-04-28T02:35:32;5.70;;;5.50;;
3527;SDS011;1778;47.966;7.854;2023-04-28T02:36:34;6.03;;;5.63;;
3527;SDS011;1778;47.966;7.854;2023-04-28T02:37:36;5.17;;;4.90;;
3527;SDS011;1778;47.966;7.854;2023-04-28T02:38:37;5.40;;;5.20;;
3527;SDS011;1778;47.966;7.854;2023-04-28T02:39:41;5.10;;;5.00;;
3527;SDS011;1778;47.966;7.854;2023-04-28T02:40:42;5.70;;;5.50;;
3527;SDS011;1778;47.966;7.854;2023-04-28T02:41:44;5.77;;;5.57;;
3527;SDS011;1778;47.966;7.854;2023-04-28T02:42:46;5.53;;;5.33;;
3527;SDS011;1778;47.966;7.854;2023-04-28T02:43:47;6.17;;;5.73;;
3527;SDS011;1778;47.966;7.854;2023-04-28T02:44:49;5.50;;;5.30;;
3527;SDS011;1778;47.966;7.854;2023-04-28T02:45:50;6.13;;;5.83;;
3527;SDS011;1778;47.966;7.854;2023-04-28T02:46:52;5.30;;;5.20;;
3527;SDS011;1778;47.966;7.854;2023-04-28T02:47:54;5.63;;;5.43;;
3527;SDS011;1778;47.966;7.854;2023-04-28T02:48:56;6.07;;;5.57;;
3527;SDS011;1778;47.966;7.854;2023-04-28T02:49:57;5.60;;;5.43;;
3527;SDS011;1778;47.966;7.854;2023-04-28T02:50:59;5.47;;;5.27;;
3527;SDS011;1778;47.966;7.854;2023-04-28T02:52:01;5.87;;;5.57;;
3527;SDS011;1778;47.966;7.854;2023-04-28T02:53:03;5.27;;;5.17;;
3527;SDS011;1778;47.966;7.854;2023-04-28T02:54:04;5.20;;;5.10;;
3527;SDS011;1778;47.966;7.854;2023-04-28T02:55:06;5.17;;;5.03;;
3527;SDS011;1778;47.966;7.854;2023-04-28T02:56:08;5.60;;;5.40;;
3527;SDS011;1778;47.966;7.854;2023-04-28T02:57:09;5.60;;;5.40;;
3527;SDS011;1778;47.966;7.854;2023-04-28T02:58:11;6.13;;;5.83;;
3527;SDS011;1778;47.966;7.854;2023-04-28T02:59:13;6.43;;;6.13;;
3527;SDS011;1778;47.966;7.854;2023-04-28T03:00:14;6.03;;;5.83;;
3527;SDS011;1778;47.966;7.854;2023-04-28T03:01:19;6.00;;;5.80;;
3527;SDS011;1778;47.966;7.854;2023-04-28T03:02:21;5.87;;;5.67;;
3527;SDS011;1778;47.966;7.854;2023-04-28T03:03:23;6.50;;;6.10;;
3527;SDS011;1778;47.966;7.854;2023-04-28T03:04:25;6.00;;;5.80;;
3527;SDS011;1778;47.966;7.854;2023-04-28T03:05:27;6.10;;;5.90;;
3527;SDS011;1778;47.966;7.854;2023-04-28T03:06:29;6.90;;;6.10;;
3527;SDS011;1778;47.966;7.854;2023-04-28T03:07:32;5.30;;;5.20;;
3527;SDS011;1778;47.966;7.854;2023-04-28T03:08:34;6.13;;;5.73;;
3527;SDS011;1778;47.966;7.854;2023-04-28T03:09:36;11.13;;;8.80;;
3527;SDS011;1778;47.966;7.854;2023-04-28T03:10:37;6.03;;;5.73;;
3527;SDS011;1778;47.966;7.854;2023-04-28T03:11:39;5.40;;;5.30;;
3527;SDS011;1778;47.966;7.854;2023-04-28T03:12:42;5.87;;;5.60;;
3527;SDS011;1778;47.966;7.854;2023-04-28T03:13:43;6.33;;;6.07;;
3527;SDS011;1778;47.966;7.854;2023-04-28T03:14:45;6.47;;;5.87;;
3527;SDS011;1778;47.966;7.854;2023-04-28T03:15:46;6.50;;;6.00;;
3527;SDS011;1778;47.966;7.854;2023-04-28T03:16:48;5.90;;;5.70;;
3527;SDS011;1778;47.966;7.854;2023-04-28T03:17:50;5.70;;;5.50;;
3527;SDS011;1778;47.966;7.854;2023-04-28T03:18:52;6.37;;;6.17;;
3527;SDS011;1778;47.966;7.854;2023-04-28T03:19:53;6.60;;;6.30;;
3527;SDS011;1778;47.966;7.854;2023-04-28T03:20:56;6.17;;;5.93;;
3527;SDS011;1778;47.966;7.854;2023-04-28T03:21:59;6.50;;;6.30;;
3527;SDS011;1778;47.966;7.854;2023-04-28T03:23:00;7.00;;;6.50;;
3527;SDS011;1778;47.966;7.854;2023-04-28T03:24:02;5.90;;;5.80;;
3527;SDS011;1778;47.966;7.854;2023-04-28T03:25:06;5.77;;;5.57;;
3527;SDS011;1778;47.966;7.854;2023-04-28T03:26:16;6.23;;;6.03;;
3527;SDS011;1778;47.966;7.854;2023-04-28T03:27:18;6.77;;;6.53;;
3527;SDS011;1778;47.966;7.854;2023-04-28T03:28:19;7.80;;;7.00;;
3527;SDS011;1778;47.966;7.854;2023-04-28T03:29:21;5.40;;;5.30;;
3527;SDS011;1778;47.966;7.854;2023-04-28T03:30:24;6.03;;;5.83;;
3527;SDS011;1778;47.966;7.854;2023-04-28T03:31:26;7.10;;;6.80;;
3527;SDS011;1778;47.966;7.854;2023-04-28T03:32:28;6.80;;;6.60;;
3527;SDS011;1778;47.966;7.854;2023-04-28T03:33:29;6.40;;;6.17;;
3527;SDS011;1778;47.966;7.854;2023-04-28T03:34:32;6.70;;;6.50;;
3527;SDS011;1778;47.966;7.854;2023-04-28T03:35:34;7.07;;;6.57;;
3527;SDS011;1778;47.966;7.854;2023-04-28T03:36:36;6.63;;;6.43;;
3527;SDS011;1778;47.966;7.854;2023-04-28T03:37:44;7.13;;;6.60;;
3527;SDS011;1778;47.966;7.854;2023-04-28T03:38:46;6.23;;;6.03;;
3527;SDS011;1778;47.966;7.854;2023-04-28T03:39:48;6.73;;;6.43;;
3527;SDS011;1778;47.966;7.854;2023-04-28T03:40:49;6.57;;;6.27;;
3527;SDS011;1778;47.966;7.854;2023-04-28T03:42:26;6.60;;;6.40;;
3527;SDS011;1778;47.966;7.854;2023-04-28T03:43:40;7.50;;;7.10;;
3527;SDS011;1778;47.966;7.854;2023-04-28T03:45:08;6.50;;;6.30;;
3527;SDS011;1778;47.966;7.854;2023-04-28T03:46:10;6.80;;;6.50;;
3527;SDS011;1778;47.966;7.854;2023-04-28T03:47:12;7.53;;;7.20;;
3527;SDS011;1778;47.966;7.854;2023-04-28T03:48:17;6.67;;;6.47;;
3527;SDS011;1778;47.966;7.854;2023-04-28T03:49:18;6.60;;;6.40;;
3527;SDS011;1778;47.966;7.854;2023-04-28T03:50:20;7.37;;;7.07;;
3527;SDS011;1778;47.966;7.854;2023-04-28T03:51:24;6.33;;;6.13;;
3527;SDS011;1778;47.966;7.854;2023-04-28T03:52:27;7.20;;;6.90;;
3527;SDS011;1778;47.966;7.854;2023-04-28T03:53:29;7.30;;;6.73;;
3527;SDS011;1778;47.966;7.854;2023-04-28T03:54:31;6.60;;;6.20;;
3527;SDS011;1778;47.966;7.854;2023-04-28T03:55:33;6.67;;;6.37;;
3527;SDS011;1778;47.966;7.854;2023-04-28T03:56:35;7.00;;;6.70;;
3527;SDS011;1778;47.966;7.854;2023-04-28T03:57:37;7.00;;;6.80;;
3527;SDS011;1778;47.966;7.854;2023-04-28T03:58:38;7.43;;;7.00;;
3527;SDS011;1778;47.966;7.854;2023-04-28T03:59:41;7.60;;;7.30;;
3527;SDS011;1778;47.966;7.854;2023-04-28T04:00:43;7.07;;;6.67;;
3527;SDS011;1778;47.966;7.854;2023-04-28T04:01:45;6.53;;;6.33;;
3527;SDS011;1778;47.966;7.854;2023-04-28T04:02:46;7.60;;;7.30;;
3527;SDS011;1778;47.966;7.854;2023-04-28T04:03:49;7.03;;;6.73;;
3527;SDS011;1778;47.966;7.854;2023-04-28T04:04:51;7.67;;;7.30;;
3527;SDS011;1778;47.966;7.854;2023-04-28T04:05:53;7.30;;;7.10;;
3527;SDS011;1778;47.966;7.854;2023-04-28T04:06:55;7.40;;;7.10;;
3527;SDS011;1778;47.966;7.854;2023-04-28T04:07:57;7.20;;;7.00;;
3527;SDS011;1778;47.966;7.854;2023-04-28T04:08:59;6.37;;;6.17;;
3527;SDS011;1778;47.966;7.854;2023-04-28T04:10:00;6.70;;;6.50;;
3527;SDS011;1778;47.966;7.854;2023-04-28T04:11:06;7.43;;;7.13;;
3527;SDS011;1778;47.966;7.854;2023-04-28T04:12:08;7.40;;;7.10;;
3527;SDS011;1778;47.966;7.854;2023-04-28T04:13:10;7.60;;;7.30;;
3527;SDS011;1778;47.966;7.854;2023-04-28T04:14:11;7.20;;;6.80;;
3527;SDS011;1778;47.966;7.854;2023-04-28T04:15:13;7.30;;;7.00;;
3527;SDS011;1778;47.966;7.854;2023-04-28T04:16:16;7.57;;;7.23;;
3527;SDS011;1778;47.966;7.854;2023-04-28T04:17:18;8.60;;;7.70;;
3527;SDS011;1778;47.966;7.854;2023-04-28T04:18:19;6.43;;;6.17;;
3527;SDS011;1778;47.966;7.854;2023-04-28T04:19:44;7.40;;;7.10;;
3527;SDS011;1778;47.966;7.854;2023-04-28T04:20:46;7.30;;;7.00;;
3527;SDS011;1778;47.966;7.854;2023-04-28T04:21:47;7.30;;;7.00;;
3527;SDS011;1778;47.966;7.854;2023-04-28T04:22:49;7.27;;;6.97;;
3527;SDS011;1778;47.966;7.854;2023-04-28T04:23:50;6.80;;;6.60;;
3527;SDS011;1778;47.966;7.854;2023-04-28T04:24:52;6.87;;;6.57;;
3527;SDS011;1778;47.966;7.854;2023-04-28T04:25:55;7.77;;;7.37;;
3527;SDS011;1778;47.966;7.854;2023-04-28T04:26:56;7.37;;;7.07;;
3527;SDS011;1778;47.966;7.854;2023-04-28T04:28:04;6.70;;;6.13;;
3527;SDS011;1778;47.966;7.854;2023-04-28T04:29:06;6.70;;;6.40;;
3527;SDS011;1778;47.966;7.854;2023-04-28T04:30:08;7.23;;;6.93;;
3527;SDS011;1778;47.966;7.854;2023-04-28T04:31:10;6.93;;;6.73;;
3527;SDS011;1778;47.966;7.854;2023-04-28T04:32:12;7.40;;;6.90;;
3527;SDS011;1778;47.966;7.854;2023-04-28T04:33:15;6.97;;;6.77;;
3527;SDS011;1778;47.966;7.854;2023-04-28T04:34:16;6.97;;;6.77;;
3527;SDS011;1778;47.966;7.854;2023-04-28T04:35:19;6.77;;;6.57;;
3527;SDS011;1778;47.966;7.854;2023-04-28T04:36:21;7.50;;;7.20;;
3527;SDS011;1778;47.966;7.854;2023-04-28T04:37:23;6.80;;;6.60;;
3527;SDS011;1778;47.966;7.854;2023-04-28T04:38:30;6.70;;;6.40;;
3527;SDS011;1778;47.966;7.854;2023-04-28T04:39:38;6.47;;;6.27;;
3527;SDS011;1778;47.966;7.854;2023-04-28T04:40:39;6.63;;;6.43;;
3527;SDS011;1778;47.966;7.854;2023-04-28T04:41:42;7.37;;;6.90;;
3527;SDS011;1778;47.966;7.854;2023-04-28T04:43:03;7.50;;;7.13;;
3527;SDS011;1778;47.966;7.854;2023-04-28T04:44:11;7.20;;;6.93;;
3527;SDS011;1778;47.966;7.854;2023-04-28T04:45:18;6.83;;;6.63;;
3527;SDS011;1778;47.966;7.854;2023-04-28T04:46:20;7.17;;;6.87;;
3527;SDS011;1778;47.966;7.854;2023-04-28T04:47:23;7.47;;;7.17;;
3527;SDS011;1778;47.966;7.854;2023-04-28T04:48:25;6.87;;;6.60;;
3527;SDS011;1778;47.966;7.854;2023-04-28T04:49:27;6.60;;;6.40;;
3527;SDS011;1778;47.966;7.854;2023-04-28T04:50:29;6.87;;;6.67;;
3527;SDS011;1778;47.966;7.854;2023-04-28T04:51:30;7.10;;;6.80;;
3527;SDS011;1778;47.966;7.854;2023-04-28T04:52:32;6.87;;;6.60;;
3527;SDS011;1778;47.966;7.854;2023-04-28T04:53:34;8.10;;;7.80;;
3527;SDS011;1778;47.966;7.854;2023-04-28T04:54:36;6.57;;;6.37;;
3527;SDS011;1778;47.966;7.854;2023-04-28T04:55:38;6.93;;;6.73;;
3527;SDS011;1778;47.966;7.854;2023-04-28T04:56:40;6.87;;;6.67;;
3527;SDS011;1778;47.966;7.854;2023-04-28T04:57:43;6.57;;;6.37;;
3527;SDS011;1778;47.966;7.854;2023-04-28T04:58:49;7.03;;;6.83;;
3527;SDS011;1778;47.966;7.854;2023-04-28T05:00:24;7.30;;;6.90;;
3527;SDS011;1778;47.966;7.854;2023-04-28T05:01:27;7.63;;;7.33;;
3527;SDS011;1778;47.966;7.854;2023-04-28T05:02:29;6.90;;;6.70;;
3527;SDS011;1778;47.966;7.854;2023-04-28T05:03:31;6.77;;;6.47;;
3527;SDS011;1778;47.966;7.854;2023-04-28T05:04:33;7.53;;;7.13;;
3527;SDS011;1778;47.966;7.854;2023-04-28T05:05:35;7.10;;;6.80;;
3527;SDS011;1778;47.966;7.854;2023-04-28T05:06:43;6.53;;;6.33;;
3527;SDS011;1778;47.966;7.854;2023-04-28T05:07:45;6.43;;;6.20;;
3527;SDS011;1778;47.966;7.854;2023-04-28T05:08:47;5.90;;;5.70;;
3527;SDS011;1778;47.966;7.854;2023-04-28T05:09:48;6.50;;;6.30;;
3527;SDS011;1778;47.966;7.854;2023-04-28T05:10:50;6.77;;;6.37;;
3527;SDS011;1778;47.966;7.854;2023-04-28T05:11:52;6.57;;;6.27;;
3527;SDS011;1778;47.966;7.854;2023-04-28T05:12:54;7.40;;;6.70;;
3527;SDS011;1778;47.966;7.854;2023-04-28T05:13:55;6.47;;;6.27;;
3527;SDS011;1778;47.966;7.854;2023-04-28T05:14:57;6.10;;;5.80;;
3527;SDS011;1778;47.966;7.854;2023-04-28T05:15:59;5.57;;;5.47;;
3527;SDS011;1778;47.966;7.854;2023-04-28T05:17:09;6.87;;;6.57;;
3527;SDS011;1778;47.966;7.854;2023-04-28T05:18:14;5.73;;;5.63;;
3527;SDS011;1778;47.966;7.854;2023-04-28T05:19:16;6.33;;;6.07;;
3527;SDS011;1778;47.966;7.854;2023-04-28T05:20:17;6.17;;;5.80;;
3527;SDS011;1778;47.966;7.854;2023-04-28T05:21:19;6.90;;;6.60;;
3527;SDS011;1778;47.966;7.854;2023-04-28T05:22:21;5.60;;;5.40;;
3527;SDS011;1778;47.966;7.854;2023-04-28T05:23:23;7.00;;;6.57;;
3527;SDS011;1778;47.966;7.854;2023-04-28T05:24:24;5.93;;;5.50;;
3527;SDS011;1778;47.966;7.854;2023-04-28T05:25:26;6.37;;;6.17;;
3527;SDS011;1778;47.966;7.854;2023-04-28T05:26:28;6.23;;;5.93;;
3527;SDS011;1778;47.966;7.854;2023-04-28T05:27:36;6.53;;;6.23;;
3527;SDS011;1778;47.966;7.854;2023-04-28T05:28:39;5.80;;;5.60;;
3527;SDS011;1778;47.966;7.854;2023-04-28T05:29:42;5.70;;;5.50;;
3527;SDS011;1778;47.966;7.854;2023-04-28T05:30:44;6.50;;;6.27;;
3527;SDS011;1778;47.966;7.854;2023-04-28T05:31:46;7.33;;;6.93;;
3527;SDS011;1778;47.966;7.854;2023-04-28T05:32:49;6.23;;;5.87;;
3527;SDS011;1778;47.966;7.854;2023-04-28T05:33:51;5.17;;;5.07;;
3527;SDS011;1778;47.966;7.854;2023-04-28T05:34:52;5.77;;;5.47;;
3527;SDS011;1778;47.966;7.854;2023-04-28T05:35:54;5.67;;;5.40;;
3527;SDS011;1778;47.966;7.854;2023-04-28T05:36:56;6.23;;;5.63;;
3527;SDS011;1778;47.966;7.854;2023-04-28T05:38:01;6.20;;;6.00;;
3527;SDS011;1778;47.966;7.854;2023-04-28T05:39:03;6.07;;;5.87;;
3527;SDS011;1778;47.966;7.854;2023-04-28T05:40:05;5.67;;;5.57;;
3527;SDS011;1778;47.966;7.854;2023-04-28T05:41:07;6.10;;;5.90;;
3527;SDS011;1778;47.966;7.854;2023-04-28T05:42:09;5.97;;;5.77;;
3527;SDS011;1778;47.966;7.854;2023-04-28T05:43:11;6.10;;;5.90;;
3527;SDS011;1778;47.966;7.854;2023-04-28T05:44:12;6.53;;;6.00;;
3527;SDS011;1778;47.966;7.854;2023-04-28T05:45:14;5.73;;;5.53;;
3527;SDS011;1778;47.966;7.854;2023-04-28T05:46:16;6.20;;;6.00;;
3527;SDS011;1778;47.966;7.854;2023-04-28T05:47:31;6.90;;;6.50;;
3527;SDS011;1778;47.966;7.854;2023-04-28T05:48:33;6.10;;;5.90;;
3527;SDS011;1778;47.966;7.854;2023-04-28T05:49:35;6.53;;;6.13;;
3527;SDS011;1778;47.966;7.854;2023-04-28T05:50:38;6.30;;;6.10;;
3527;SDS011;1778;47.966;7.854;2023-04-28T05:51:41;6.47;;;6.17;;
3527;SDS011;1778;47.966;7.854;2023-04-28T05:52:42;6.47;;;6.27;;
3527;SDS011;1778;47.966;7.854;2023-04-28T05:53:44;6.40;;;6.20;;
3527;SDS011;1778;47.966;7.854;2023-04-28T05:54:48;5.83;;;5.73;;
3527;SDS011;1778;47.966;7.854;2023-04-28T05:55:50;6.27;;;6.07;;
3527;SDS011;1778;47.966;7.854;2023-04-28T05:56:53;7.47;;;7.17;;
3527;SDS011;1778;47.966;7.854;2023-04-28T05:57:54;6.80;;;6.50;;
3527;SDS011;1778;47.966;7.854;2023-04-28T05:58:56;7.90;;;7.60;;
3527;SDS011;1778;47.966;7.854;2023-04-28T05:59:58;6.67;;;6.37;;
3527;SDS011;1778;47.966;7.854;2023-04-28T06:01:00;6.33;;;6.13;;
3527;SDS011;1778;47.966;7.854;2023-04-28T06:02:02;6.57;;;6.17;;
3527;SDS011;1778;47.966;7.854;2023-04-28T06:03:03;6.87;;;6.57;;
3527;SDS011;1778;47.966;7.854;2023-04-28T06:04:06;6.33;;;6.03;;
3527;SDS011;1778;47.966;7.854;2023-04-28T06:05:08;6.50;;;6.30;;
3527;SDS011;1778;47.966;7.854;2023-04-28T06:06:11;6.37;;;6.10;;
3527;SDS011;1778;47.966;7.854;2023-04-28T06:07:13;7.93;;;7.53;;
3527;SDS011;1778;47.966;7.854;2023-04-28T06:08:15;6.37;;;6.17;;
3527;SDS011;1778;47.966;7.854;2023-04-28T06:09:17;6.83;;;6.60;;
3527;SDS011;1778;47.966;7.854;2023-04-28T06:10:20;7.83;;;6.37;;
3527;SDS011;1778;47.966;7.854;2023-04-28T06:11:22;6.07;;;5.80;;
3527;SDS011;1778;47.966;7.854;2023-04-28T06:12:24;5.77;;;5.60;;
3527;SDS011;1778;47.966;7.854;2023-04-28T06:13:26;6.00;;;5.80;;
3527;SDS011;1778;47.966;7.854;2023-04-28T06:14:28;5.97;;;5.87;;
3527;SDS011;1778;47.966;7.854;2023-04-28T06:15:29;6.27;;;6.07;;
3527;SDS011;1778;47.966;7.854;2023-04-28T06:16:31;6.10;;;5.90;;
3527;SDS011;1778;47.966;7.854;2023-04-28T06:17:32;6.47;;;6.27;;
3527;SDS011;1778;47.966;7.854;2023-04-28T06:18:34;6.70;;;6.50;;
3527;SDS011;1778;47.966;7.854;2023-04-28T06:19:37;6.57;;;6.27;;
3527;SDS011;1778;47.966;7.854;2023-04-28T06:20:38;5.93;;;5.73;;
3527;SDS011;1778;47.966;7.854;2023-04-28T06:21:40;6.07;;;5.83;;
3527;SDS011;1778;47.966;7.854;2023-04-28T06:22:41;6.10;;;5.90;;
3527;SDS011;1778;47.966;7.854;2023-04-28T06:23:43;6.33;;;6.13;;
3527;SDS011;1778;47.966;7.854;2023-04-28T06:24:45;6.40;;;6.20;;
3527;SDS011;1778;47.966;7.854;2023-04-28T06:25:51;6.40;;;6.10;;
3527;SDS011;1778;47.966;7.854;2023-04-28T06:26:52;6.17;;;5.97;;
3527;SDS011;1778;47.966;7.854;2023-04-28T06:27:55;6.13;;;5.93;;
3527;SDS011;1778;47.966;7.854;2023-04-28T06:28:57;6.90;;;6.60;;
3527;SDS011;1778;47.966;7.854;2023-04-28T06:29:59;6.80;;;6.40;;
3527;SDS011;1778;47.966;7.854;2023-04-28T06:31:01;6.57;;;6.17;;